sensor_id;sensor_type;location;lat;lon;timestamp;temperature;humidity
3134;DHT22;1577;49.912;10.924;2023-08-21T00:02:25;23.60;99.90
3134;DHT22;1577;49.912;10.924;2023-08-21T00:04:53;23.60;99.90
3134;DHT22;1577;49.912;10.924;2023-08-21T00:07:19;23.60;99.90
3134;DHT22;1577;49.912;10.924;2023-08-21T00:09:45;23.60;99.90
3134;DHT22;1577;49.912;10.924;2023-08-21T00:12:10;23.60;99.90
3134;DHT22;1577;49.912;10.924;2023-08-21T00:14:36;23.60;99.90
3134;DHT22;1577;49.912;10.924;2023-08-21T00:17:02;23.50;99.90
3134;DHT22;1577;49.912;10.924;2023-08-21T00:19:29;23.60;99.90
3134;DHT22;1577;49.912;10.924;2023-08-21T00:21:54;23.60;99.90
3134;DHT22;1577;49.912;10.924;2023-08-21T00:24:20;23.50;99.90
3134;DHT22;1577;49.912;10.924;2023-08-21T00:26:46;23.50;99.90
3134;DHT22;1577;49.912;10.924;2023-08-21T00:29:11;23.50;99.90
3134;DHT22;1577;49.912;10.924;2023-08-21T00:31:37;23.40;99.90
3134;DHT22;1577;49.912;10.924;2023-08-21T00:34:02;23.30;99.90
3134;DHT22;1577;49.912;10.924;2023-08-21T00:36:28;23.30;99.90
3134;DHT22;1577;49.912;10.924;2023-08-21T00:38:53;23.20;99.90
3134;DHT22;1577;49.912;10.924;2023-08-21T00:41:19;23.20;99.90
3134;DHT22;1577;49.912;10.924;2023-08-21T00:43:44;23.30;99.90
3134;DHT22;1577;49.912;10.924;2023-08-21T00:46:10;23.30;99.90
3134;DHT22;1577;49.912;10.924;2023-08-21T00:48:36;23.30;99.90
3134;DHT22;1577;49.912;10.924;2023-08-21T00:51:03;23.20;99.90
3134;DHT22;1577;49.912;10.924;2023-08-21T00:53:29;23.20;99.90
3134;DHT22;1577;49.912;10.924;2023-08-21T00:55:55;23.20;99.90
3134;DHT22;1577;49.912;10.924;2023-08-21T00:58:21;23.00;99.90
3134;DHT22;1577;49.912;10.924;2023-08-21T01:00:48;22.90;99.90
3134;DHT22;1577;49.912;10.924;2023-08-21T01:03:15;22.80;99.90
3134;DHT22;1577;49.912;10.924;2023-08-21T01:05:41;22.90;99.90
3134;DHT22;1577;49.912;10.924;2023-08-21T01:16:40;22.90;99.90
3134;DHT22;1577;49.912;10.924;2023-08-21T01:19:12;22.90;99.90
3134;DHT22;1577;49.912;10.924;2023-08-21T01:21:41;22.80;99.90
3134;DHT22;1577;49.912;10.924;2023-08-21T01:24:06;22.80;99.90
3134;DHT22;1577;49.912;10.924;2023-08-21T01:26:32;22.90;99.90
3134;DHT22;1577;49.912;10.924;2023-08-21T01:28:57;22.80;99.90
3134;DHT22;1577;49.912;10.924;2023-08-21T01:31:33;22.80;99.90
3134;DHT22;1577;49.912;10.924;2023-08-21T01:34:04;22.80;99.90
3134;DHT22;1577;49.912;10.924;2023-08-21T01:36:31;22.70;99.90
3134;DHT22;1577;49.912;10.924;2023-08-21T01:38:57;22.60;99.90
3134;DHT22;1577;49.912;10.924;2023-08-21T01:41:23;22.50;99.90
3134;DHT22;1577;49.912;10.924;2023-08-21T01:43:49;22.60;99.90
3134;DHT22;1577;49.912;10.924;2023-08-21T01:46:15;22.50;99.90
3134;DHT22;1577;49.912;10.924;2023-08-21T01:48:41;22.50;99.90
3134;DHT22;1577;49.912;10.924;2023-08-21T01:51:07;22.50;99.90
3134;DHT22;1577;49.912;10.924;2023-08-21T01:53:33;22.50;99.90
3134;DHT22;1577;49.912;10.924;2023-08-21T01:55:58;22.50;99.90
3134;DHT22;1577;49.912;10.924;2023-08-21T01:58:24;22.40;99.90
3134;DHT22;1577;49.912;10.924;2023-08-21T02:00:50;22.30;99.90
3134;DHT22;1577;49.912;10.924;2023-08-21T02:03:15;22.30;99.90
3134;DHT22;1577;49.912;10.924;2023-08-21T02:05:41;22.30;99.90
3134;DHT22;1577;49.912;10.924;2023-08-21T02:08:10;22.30;99.90
3134;DHT22;1577;49.912;10.924;2023-08-21T02:10:36;22.20;99.90
3134;DHT22;1577;49.912;10.924;2023-08-21T02:13:01;22.20;99.90
3134;DHT22;1577;49.912;10.924;2023-08-21T02:15:27;22.20;99.90
3134;DHT22;1577;49.912;10.924;2023-08-21T02:17:53;22.10;99.90
3134;DHT22;1577;49.912;10.924;2023-08-21T02:20:19;22.10;99.90
3134;DHT22;1577;49.912;10.924;2023-08-21T02:22:45;22.10;99.90
3134;DHT22;1577;49.912;10.924;2023-08-21T02:25:11;22.10;99.90
3134;DHT22;1577;49.912;10.924;2023-08-21T02:27:36;22.20;99.90
3134;DHT22;1577;49.912;10.924;2023-08-21T02:30:02;22.30;99.90
3134;DHT22;1577;49.912;10.924;2023-08-21T02:32:28;22.30;99.90
3134;DHT22;1577;49.912;10.924;2023-08-21T02:34:54;22.20;99.90
3134;DHT22;1577;49.912;10.924;2023-08-21T02:37:19;22.20;99.90
3134;DHT22;1577;49.912;10.924;2023-08-21T02:39:45;22.20;99.90
3134;DHT22;1577;49.912;10.924;2023-08-21T02:42:11;22.30;99.90
3134;DHT22;1577;49.912;10.924;2023-08-21T02:44:36;22.30;99.90
3134;DHT22;1577;49.912;10.924;2023-08-21T02:47:02;22.30;99.90
3134;DHT22;1577;49.912;10.924;2023-08-21T02:49:27;22.30;99.90
3134;DHT22;1577;49.912;10.924;2023-08-21T02:51:53;22.20;99.90
3134;DHT22;1577;49.912;10.924;2023-08-21T02:54:18;22.10;99.90
3134;DHT22;1577;49.912;10.924;2023-08-21T02:56:44;22.10;99.90
3134;DHT22;1577;49.912;10.924;2023-08-21T02:59:10;22.10;99.90
3134;DHT22;1577;49.912;10.924;2023-08-21T03:01:35;22.20;99.90
3134;DHT22;1577;49.912;10.924;2023-08-21T03:04:01;22.10;99.90
3134;DHT22;1577;49.912;10.924;2023-08-21T03:06:27;22.10;99.90
3134;DHT22;1577;49.912;10.924;2023-08-21T03:08:52;22.10;99.90
3134;DHT22;1577;49.912;10.924;2023-08-21T03:11:18;22.00;99.90
3134;DHT22;1577;49.912;10.924;2023-08-21T03:13:43;21.90;99.90
3134;DHT22;1577;49.912;10.924;2023-08-21T03:16:09;21.90;99.90
3134;DHT22;1577;49.912;10.924;2023-08-21T03:18:57;21.90;99.90
3134;DHT22;1577;49.912;10.924;2023-08-21T03:21:23;21.80;99.90
3134;DHT22;1577;49.912;10.924;2023-08-21T03:23:55;21.80;99.90
3134;DHT22;1577;49.912;10.924;2023-08-21T03:26:21;21.80;99.90
3134;DHT22;1577;49.912;10.924;2023-08-21T03:28:47;21.70;99.90
3134;DHT22;1577;49.912;10.924;2023-08-21T03:31:12;21.70;99.90
3134;DHT22;1577;49.912;10.924;2023-08-21T03:33:38;21.70;99.90
3134;DHT22;1577;49.912;10.924;2023-08-21T03:36:04;21.60;99.90
3134;DHT22;1577;49.912;10.924;2023-08-21T03:38:29;21.60;99.90
3134;DHT22;1577;49.912;10.924;2023-08-21T03:40:55;21.60;99.90
3134;DHT22;1577;49.912;10.924;2023-08-21T03:43:20;21.60;99.90
3134;DHT22;1577;49.912;10.924;2023-08-21T03:45:46;21.60;99.90
3134;DHT22;1577;49.912;10.924;2023-08-21T03:48:11;21.60;99.90
3134;DHT22;1577;49.912;10.924;2023-08-21T03:50:38;21.70;99.90
3134;DHT22;1577;49.912;10.924;2023-08-21T03:53:04;21.60;99.90
3134;DHT22;1577;49.912;10.924;2023-08-21T03:55:30;21.60;99.90
3134;DHT22;1577;49.912;10.924;2023-08-21T03:57:56;21.60;99.90
3134;DHT22;1577;49.912;10.924;2023-08-21T04:00:21;21.50;99.90
3134;DHT22;1577;49.912;10.924;2023-08-21T04:02:47;21.50;99.90
3134;DHT22;1577;49.912;10.924;2023-08-21T04:05:13;21.40;99.90
3134;DHT22;1577;49.912;10.924;2023-08-21T04:07:38;21.40;99.90
3134;DHT22;1577;49.912;10.924;2023-08-21T04:10:05;21.40;99.90
3134;DHT22;1577;49.912;10.924;2023-08-21T04:12:31;21.40;99.90
3134;DHT22;1577;49.912;10.924;2023-08-21T04:14:56;21.30;99.90
3134;DHT22;1577;49.912;10.924;2023-08-21T04:17:22;21.40;99.90
3134;DHT22;1577;49.912;10.924;2023-08-21T04:19:49;21.40;99.90
3134;DHT22;1577;49.912;10.924;2023-08-21T04:22:14;21.40;99.90
3134;DHT22;1577;49.912;10.924;2023-08-21T04:24:41;21.40;99.90
3134;DHT22;1577;49.912;10.924;2023-08-21T04:27:06;21.40;99.90
3134;DHT22;1577;49.912;10.924;2023-08-21T04:29:32;21.50;99.90
3134;DHT22;1577;49.912;10.924;2023-08-21T04:31:58;21.50;99.90
3134;DHT22;1577;49.912;10.924;2023-08-21T04:34:23;21.60;99.90
3134;DHT22;1577;49.912;10.924;2023-08-21T04:36:49;21.60;99.90
3134;DHT22;1577;49.912;10.924;2023-08-21T04:39:14;21.70;99.90
3134;DHT22;1577;49.912;10.924;2023-08-21T04:41:41;21.60;99.90
3134;DHT22;1577;49.912;10.924;2023-08-21T04:44:07;21.60;99.90
3134;DHT22;1577;49.912;10.924;2023-08-21T04:46:32;21.60;99.90
3134;DHT22;1577;49.912;10.924;2023-08-21T04:48:58;21.50;99.90
3134;DHT22;1577;49.912;10.924;2023-08-21T04:51:24;21.60;99.90
3134;DHT22;1577;49.912;10.924;2023-08-21T04:53:50;21.60;99.90
3134;DHT22;1577;49.912;10.924;2023-08-21T04:56:15;21.60;99.90
3134;DHT22;1577;49.912;10.924;2023-08-21T04:58:41;21.60;99.90
3134;DHT22;1577;49.912;10.924;2023-08-21T05:01:06;21.50;99.90
3134;DHT22;1577;49.912;10.924;2023-08-21T05:03:32;21.60;99.90
3134;DHT22;1577;49.912;10.924;2023-08-21T05:05:57;21.60;99.90
3134;DHT22;1577;49.912;10.924;2023-08-21T05:08:24;21.70;99.90
3134;DHT22;1577;49.912;10.924;2023-08-21T05:10:59;21.70;99.90
3134;DHT22;1577;49.912;10.924;2023-08-21T05:13:26;21.80;99.90
3134;DHT22;1577;49.912;10.924;2023-08-21T05:15:56;21.90;99.90
3134;DHT22;1577;49.912;10.924;2023-08-21T05:18:22;22.00;99.90
3134;DHT22;1577;49.912;10.924;2023-08-21T05:20:49;22.00;99.90
3134;DHT22;1577;49.912;10.924;2023-08-21T05:23:15;21.90;99.90
3134;DHT22;1577;49.912;10.924;2023-08-21T05:25:43;22.00;99.90
3134;DHT22;1577;49.912;10.924;2023-08-21T05:28:08;22.10;99.90
3134;DHT22;1577;49.912;10.924;2023-08-21T05:30:36;22.30;99.90
3134;DHT22;1577;49.912;10.924;2023-08-21T05:33:02;22.30;99.90
3134;DHT22;1577;49.912;10.924;2023-08-21T05:35:28;22.40;99.90
3134;DHT22;1577;49.912;10.924;2023-08-21T05:37:53;22.40;99.90
3134;DHT22;1577;49.912;10.924;2023-08-21T05:40:19;22.40;99.90
3134;DHT22;1577;49.912;10.924;2023-08-21T05:42:45;22.40;99.90
3134;DHT22;1577;49.912;10.924;2023-08-21T05:45:10;22.40;99.90
3134;DHT22;1577;49.912;10.924;2023-08-21T05:47:36;22.50;99.90
3134;DHT22;1577;49.912;10.924;2023-08-21T05:50:02;22.50;99.90
3134;DHT22;1577;49.912;10.924;2023-08-21T05:52:27;22.50;99.90
3134;DHT22;1577;49.912;10.924;2023-08-21T05:54:53;22.50;99.90
3134;DHT22;1577;49.912;10.924;2023-08-21T05:57:18;22.70;99.90
3134;DHT22;1577;49.912;10.924;2023-08-21T05:59:45;22.70;99.90
3134;DHT22;1577;49.912;10.924;2023-08-21T06:02:12;22.80;99.90
3134;DHT22;1577;49.912;10.924;2023-08-21T06:04:42;22.80;99.90
3134;DHT22;1577;49.912;10.924;2023-08-21T06:07:08;23.00;99.90
3134;DHT22;1577;49.912;10.924;2023-08-21T06:09:34;23.20;99.90
3134;DHT22;1577;49.912;10.924;2023-08-21T06:12:01;23.30;99.90
3134;DHT22;1577;49.912;10.924;2023-08-21T06:14:27;23.30;99.90
3134;DHT22;1577;49.912;10.924;2023-08-21T06:16:59;23.30;99.90
3134;DHT22;1577;49.912;10.924;2023-08-21T06:19:25;23.40;99.90
3134;DHT22;1577;49.912;10.924;2023-08-21T06:21:51;23.50;99.90
3134;DHT22;1577;49.912;10.924;2023-08-21T06:24:16;23.80;99.90
3134;DHT22;1577;49.912;10.924;2023-08-21T06:26:42;24.50;99.90
3134;DHT22;1577;49.912;10.924;2023-08-21T06:29:07;25.50;99.90
3134;DHT22;1577;49.912;10.924;2023-08-21T06:31:33;26.70;99.90
3134;DHT22;1577;49.912;10.924;2023-08-21T06:33:59;27.80;99.90
3134;DHT22;1577;49.912;10.924;2023-08-21T06:38:50;30.20;99.90
3134;DHT22;1577;49.912;10.924;2023-08-21T06:41:16;31.10;99.90
3134;DHT22;1577;49.912;10.924;2023-08-21T06:43:42;31.90;99.90
3134;DHT22;1577;49.912;10.924;2023-08-21T06:46:07;32.70;99.90
3134;DHT22;1577;49.912;10.924;2023-08-21T06:48:37;33.50;99.90
3134;DHT22;1577;49.912;10.924;2023-08-21T06:51:03;34.20;99.90
3134;DHT22;1577;49.912;10.924;2023-08-21T06:53:28;34.80;99.90
3134;DHT22;1577;49.912;10.924;2023-08-21T06:55:54;35.50;99.90
3134;DHT22;1577;49.912;10.924;2023-08-21T06:58:20;36.10;99.90
3134;DHT22;1577;49.912;10.924;2023-08-21T07:00:46;36.40;99.90
3134;DHT22;1577;49.912;10.924;2023-08-21T07:03:11;36.20;99.90
3134;DHT22;1577;49.912;10.924;2023-08-21T07:05:37;36.20;99.90
3134;DHT22;1577;49.912;10.924;2023-08-21T07:08:03;35.80;99.90
3134;DHT22;1577;49.912;10.924;2023-08-21T07:10:29;35.50;99.90
3134;DHT22;1577;49.912;10.924;2023-08-21T07:12:55;35.30;99.90
3134;DHT22;1577;49.912;10.924;2023-08-21T07:15:20;35.90;99.90
3134;DHT22;1577;49.912;10.924;2023-08-21T07:17:46;36.60;99.90
3134;DHT22;1577;49.912;10.924;2023-08-21T07:20:12;37.30;98.70
3134;DHT22;1577;49.912;10.924;2023-08-21T07:22:38;37.70;97.40
3134;DHT22;1577;49.912;10.924;2023-08-21T07:25:04;38.20;97.00
3134;DHT22;1577;49.912;10.924;2023-08-21T07:27:31;38.60;96.40
3134;DHT22;1577;49.912;10.924;2023-08-21T07:29:57;38.90;95.50
3134;DHT22;1577;49.912;10.924;2023-08-21T07:32:23;39.00;94.50
3134;DHT22;1577;49.912;10.924;2023-08-21T07:34:52;39.00;94.80
3134;DHT22;1577;49.912;10.924;2023-08-21T07:37:19;39.40;94.30
3134;DHT22;1577;49.912;10.924;2023-08-21T07:39:45;39.80;92.60
3134;DHT22;1577;49.912;10.924;2023-08-21T07:42:11;40.20;92.20
3134;DHT22;1577;49.912;10.924;2023-08-21T07:44:39;40.30;91.30
3134;DHT22;1577;49.912;10.924;2023-08-21T07:47:05;40.10;91.80
3134;DHT22;1577;49.912;10.924;2023-08-21T07:49:31;40.20;91.40
3134;DHT22;1577;49.912;10.924;2023-08-21T07:51:57;40.40;90.70
3134;DHT22;1577;49.912;10.924;2023-08-21T07:54:23;40.70;90.80
3134;DHT22;1577;49.912;10.924;2023-08-21T07:56:49;40.80;90.10
3134;DHT22;1577;49.912;10.924;2023-08-21T07:59:15;41.10;88.80
3134;DHT22;1577;49.912;10.924;2023-08-21T08:01:41;40.70;88.80
3134;DHT22;1577;49.912;10.924;2023-08-21T08:04:06;40.50;89.20
3134;DHT22;1577;49.912;10.924;2023-08-21T08:06:32;40.60;89.10
3134;DHT22;1577;49.912;10.924;2023-08-21T08:08:58;40.80;88.60
3134;DHT22;1577;49.912;10.924;2023-08-21T08:11:24;41.00;88.10
3134;DHT22;1577;49.912;10.924;2023-08-21T08:13:49;41.20;87.40
3134;DHT22;1577;49.912;10.924;2023-08-21T08:16:15;41.40;86.90
3134;DHT22;1577;49.912;10.924;2023-08-21T08:18:42;41.40;85.60
3134;DHT22;1577;49.912;10.924;2023-08-21T08:21:07;41.10;85.40
3134;DHT22;1577;49.912;10.924;2023-08-21T08:23:34;41.30;86.30
3134;DHT22;1577;49.912;10.924;2023-08-21T08:25:59;41.40;85.80
3134;DHT22;1577;49.912;10.924;2023-08-21T08:28:25;41.50;85.00
3134;DHT22;1577;49.912;10.924;2023-08-21T08:30:51;41.30;84.50
3134;DHT22;1577;49.912;10.924;2023-08-21T08:33:16;41.00;85.30
3134;DHT22;1577;49.912;10.924;2023-08-21T08:35:42;40.80;85.00
3134;DHT22;1577;49.912;10.924;2023-08-21T08:38:08;40.80;84.10
3134;DHT22;1577;49.912;10.924;2023-08-21T08:40:37;40.90;83.70
3134;DHT22;1577;49.912;10.924;2023-08-21T08:43:04;41.00;84.50
3134;DHT22;1577;49.912;10.924;2023-08-21T08:45:32;41.30;82.90
3134;DHT22;1577;49.912;10.924;2023-08-21T08:48:00;41.00;82.00
3134;DHT22;1577;49.912;10.924;2023-08-21T08:50:30;40.80;84.70
3134;DHT22;1577;49.912;10.924;2023-08-21T08:52:57;40.90;84.60
3134;DHT22;1577;49.912;10.924;2023-08-21T08:55:24;41.10;83.00
3134;DHT22;1577;49.912;10.924;2023-08-21T08:57:49;40.90;83.10
3134;DHT22;1577;49.912;10.924;2023-08-21T09:00:15;40.90;83.30
3134;DHT22;1577;49.912;10.924;2023-08-21T09:02:41;40.80;82.20
3134;DHT22;1577;49.912;10.924;2023-08-21T09:05:07;40.40;83.30
3134;DHT22;1577;49.912;10.924;2023-08-21T09:07:33;40.40;83.60
3134;DHT22;1577;49.912;10.924;2023-08-21T09:10:00;40.30;82.80
3134;DHT22;1577;49.912;10.924;2023-08-21T09:12:25;40.40;83.00
3134;DHT22;1577;49.912;10.924;2023-08-21T09:14:51;40.30;83.10
3134;DHT22;1577;49.912;10.924;2023-08-21T09:17:16;40.10;83.50
3134;DHT22;1577;49.912;10.924;2023-08-21T09:19:43;40.10;82.90
3134;DHT22;1577;49.912;10.924;2023-08-21T09:22:16;40.00;82.70
3134;DHT22;1577;49.912;10.924;2023-08-21T09:25:06;39.40;81.70
3134;DHT22;1577;49.912;10.924;2023-08-21T09:27:33;39.60;82.20
3134;DHT22;1577;49.912;10.924;2023-08-21T09:30:03;39.70;83.90
3134;DHT22;1577;49.912;10.924;2023-08-21T09:32:29;39.90;81.20
3134;DHT22;1577;49.912;10.924;2023-08-21T09:34:56;39.90;81.50
3134;DHT22;1577;49.912;10.924;2023-08-21T09:37:28;40.10;77.90
3134;DHT22;1577;49.912;10.924;2023-08-21T09:40:00;40.10;79.00
3134;DHT22;1577;49.912;10.924;2023-08-21T09:42:29;39.80;77.70
3134;DHT22;1577;49.912;10.924;2023-08-21T09:44:55;39.70;79.50
3134;DHT22;1577;49.912;10.924;2023-08-21T09:47:23;39.70;77.80
3134;DHT22;1577;49.912;10.924;2023-08-21T09:49:51;39.70;78.30
3134;DHT22;1577;49.912;10.924;2023-08-21T09:52:16;39.60;78.20
3134;DHT22;1577;49.912;10.924;2023-08-21T09:54:42;39.60;73.90
3134;DHT22;1577;49.912;10.924;2023-08-21T09:57:09;39.50;72.70
3134;DHT22;1577;49.912;10.924;2023-08-21T09:59:36;39.20;72.60
3134;DHT22;1577;49.912;10.924;2023-08-21T10:02:04;38.80;70.80
3134;DHT22;1577;49.912;10.924;2023-08-21T10:04:32;38.50;72.10
3134;DHT22;1577;49.912;10.924;2023-08-21T10:07:00;37.80;73.60
3134;DHT22;1577;49.912;10.924;2023-08-21T10:09:29;37.10;75.40
3134;DHT22;1577;49.912;10.924;2023-08-21T10:11:55;36.50;75.40
3134;DHT22;1577;49.912;10.924;2023-08-21T10:14:22;36.00;75.00
3134;DHT22;1577;49.912;10.924;2023-08-21T10:16:53;35.40;77.50
3134;DHT22;1577;49.912;10.924;2023-08-21T10:19:19;35.00;77.90
3134;DHT22;1577;49.912;10.924;2023-08-21T10:21:48;34.80;78.80
3134;DHT22;1577;49.912;10.924;2023-08-21T10:24:33;34.40;78.90
3134;DHT22;1577;49.912;10.924;2023-08-21T10:27:00;34.00;79.90
3134;DHT22;1577;49.912;10.924;2023-08-21T10:29:26;33.80;82.40
3134;DHT22;1577;49.912;10.924;2023-08-21T10:32:09;33.60;82.40
3134;DHT22;1577;49.912;10.924;2023-08-21T10:34:37;33.50;85.10
3134;DHT22;1577;49.912;10.924;2023-08-21T10:39:32;33.50;81.20
3134;DHT22;1577;49.912;10.924;2023-08-21T10:49:38;33.10;83.40
3134;DHT22;1577;49.912;10.924;2023-08-21T10:52:05;33.10;84.50
3134;DHT22;1577;49.912;10.924;2023-08-21T10:54:49;33.00;87.70
3134;DHT22;1577;49.912;10.924;2023-08-21T10:57:15;32.90;87.40
3134;DHT22;1577;49.912;10.924;2023-08-21T10:59:57;33.00;87.50
3134;DHT22;1577;49.912;10.924;2023-08-21T11:02:29;33.00;87.00
3134;DHT22;1577;49.912;10.924;2023-08-21T11:04:55;33.00;86.10
3134;DHT22;1577;49.912;10.924;2023-08-21T11:07:21;32.80;87.50
3134;DHT22;1577;49.912;10.924;2023-08-21T11:09:50;32.80;89.20
3134;DHT22;1577;49.912;10.924;2023-08-21T11:12:18;32.70;86.00
3134;DHT22;1577;49.912;10.924;2023-08-21T11:14:44;32.60;86.40
3134;DHT22;1577;49.912;10.924;2023-08-21T11:17:10;32.60;88.00
3134;DHT22;1577;49.912;10.924;2023-08-21T11:19:40;32.60;88.40
3134;DHT22;1577;49.912;10.924;2023-08-21T11:22:06;32.60;89.10
3134;DHT22;1577;49.912;10.924;2023-08-21T11:27:12;32.50;88.90
3134;DHT22;1577;49.912;10.924;2023-08-21T11:29:39;32.60;88.70
3134;DHT22;1577;49.912;10.924;2023-08-21T11:34:35;32.60;87.60
3134;DHT22;1577;49.912;10.924;2023-08-21T11:37:01;32.60;88.50
3134;DHT22;1577;49.912;10.924;2023-08-21T11:39:26;32.60;88.30
3134;DHT22;1577;49.912;10.924;2023-08-21T11:41:58;32.60;89.60
3134;DHT22;1577;49.912;10.924;2023-08-21T11:44:24;32.60;88.90
3134;DHT22;1577;49.912;10.924;2023-08-21T11:46:51;32.60;87.90
3134;DHT22;1577;49.912;10.924;2023-08-21T11:49:18;32.50;86.70
3134;DHT22;1577;49.912;10.924;2023-08-21T11:51:45;32.30;88.70
3134;DHT22;1577;49.912;10.924;2023-08-21T11:54:11;32.40;88.40
3134;DHT22;1577;49.912;10.924;2023-08-21T11:56:39;32.50;88.70
3134;DHT22;1577;49.912;10.924;2023-08-21T11:59:06;32.50;87.20
3134;DHT22;1577;49.912;10.924;2023-08-21T12:01:35;32.60;86.50
3134;DHT22;1577;49.912;10.924;2023-08-21T12:04:01;32.60;85.10
3134;DHT22;1577;49.912;10.924;2023-08-21T12:06:26;32.70;82.80
3134;DHT22;1577;49.912;10.924;2023-08-21T12:08:57;32.80;80.60
3134;DHT22;1577;49.912;10.924;2023-08-21T12:11:23;32.80;84.40
3134;DHT22;1577;49.912;10.924;2023-08-21T12:13:49;32.80;83.30
3134;DHT22;1577;49.912;10.924;2023-08-21T12:16:16;32.80;85.20
3134;DHT22;1577;49.912;10.924;2023-08-21T12:18:41;32.80;83.70
3134;DHT22;1577;49.912;10.924;2023-08-21T12:21:07;32.80;83.00
3134;DHT22;1577;49.912;10.924;2023-08-21T12:23:33;32.80;81.60
3134;DHT22;1577;49.912;10.924;2023-08-21T12:25:59;32.70;79.10
3134;DHT22;1577;49.912;10.924;2023-08-21T12:28:25;32.60;79.70
3134;DHT22;1577;49.912;10.924;2023-08-21T12:30:51;32.60;80.30
3134;DHT22;1577;49.912;10.924;2023-08-21T12:33:17;32.50;79.70
3134;DHT22;1577;49.912;10.924;2023-08-21T12:35:43;32.50;81.00
3134;DHT22;1577;49.912;10.924;2023-08-21T12:38:11;32.40;80.90
3134;DHT22;1577;49.912;10.924;2023-08-21T12:40:38;32.30;81.70
3134;DHT22;1577;49.912;10.924;2023-08-21T12:43:04;32.30;79.90
3134;DHT22;1577;49.912;10.924;2023-08-21T12:45:29;32.30;80.70
3134;DHT22;1577;49.912;10.924;2023-08-21T12:47:55;32.30;79.90
3134;DHT22;1577;49.912;10.924;2023-08-21T12:50:20;32.30;79.60
3134;DHT22;1577;49.912;10.924;2023-08-21T12:52:46;32.40;81.40
3134;DHT22;1577;49.912;10.924;2023-08-21T12:55:12;32.40;80.70
3134;DHT22;1577;49.912;10.924;2023-08-21T12:57:39;32.30;80.80
3134;DHT22;1577;49.912;10.924;2023-08-21T13:00:05;32.30;80.90
3134;DHT22;1577;49.912;10.924;2023-08-21T13:02:31;32.20;81.70
3134;DHT22;1577;49.912;10.924;2023-08-21T13:04:56;32.20;82.70
3134;DHT22;1577;49.912;10.924;2023-08-21T13:07:22;32.10;83.90
3134;DHT22;1577;49.912;10.924;2023-08-21T13:09:48;32.10;82.90
3134;DHT22;1577;49.912;10.924;2023-08-21T13:12:13;32.10;82.80
3134;DHT22;1577;49.912;10.924;2023-08-21T13:14:39;32.10;81.30
3134;DHT22;1577;49.912;10.924;2023-08-21T13:17:04;32.10;81.00
3134;DHT22;1577;49.912;10.924;2023-08-21T13:19:30;32.20;81.00
3134;DHT22;1577;49.912;10.924;2023-08-21T13:21:55;32.20;80.40
3134;DHT22;1577;49.912;10.924;2023-08-21T13:24:21;32.20;82.90
3134;DHT22;1577;49.912;10.924;2023-08-21T13:26:48;32.20;82.70
3134;DHT22;1577;49.912;10.924;2023-08-21T13:29:14;32.40;84.00
3134;DHT22;1577;49.912;10.924;2023-08-21T13:31:39;32.50;82.30
3134;DHT22;1577;49.912;10.924;2023-08-21T13:34:05;32.60;82.80
3134;DHT22;1577;49.912;10.924;2023-08-21T13:36:30;32.60;83.90
3134;DHT22;1577;49.912;10.924;2023-08-21T13:38:56;32.60;82.60
3134;DHT22;1577;49.912;10.924;2023-08-21T13:41:22;32.60;83.90
3134;DHT22;1577;49.912;10.924;2023-08-21T13:43:47;32.50;83.00
3134;DHT22;1577;49.912;10.924;2023-08-21T13:46:13;32.40;82.50
3134;DHT22;1577;49.912;10.924;2023-08-21T13:48:41;32.30;83.70
3134;DHT22;1577;49.912;10.924;2023-08-21T13:51:08;32.30;82.60
3134;DHT22;1577;49.912;10.924;2023-08-21T13:53:34;32.30;82.10
3134;DHT22;1577;49.912;10.924;2023-08-21T13:56:02;32.20;83.10
3134;DHT22;1577;49.912;10.924;2023-08-21T13:58:28;32.10;83.40
3134;DHT22;1577;49.912;10.924;2023-08-21T14:00:54;32.20;83.30
3134;DHT22;1577;49.912;10.924;2023-08-21T14:03:21;32.10;82.90
3134;DHT22;1577;49.912;10.924;2023-08-21T14:05:46;32.20;81.10
3134;DHT22;1577;49.912;10.924;2023-08-21T14:08:12;32.20;81.10
3134;DHT22;1577;49.912;10.924;2023-08-21T14:10:38;32.10;80.80
3134;DHT22;1577;49.912;10.924;2023-08-21T14:13:06;31.90;81.50
3134;DHT22;1577;49.912;10.924;2023-08-21T14:15:34;31.90;82.00
3134;DHT22;1577;49.912;10.924;2023-08-21T14:17:59;31.90;82.30
3134;DHT22;1577;49.912;10.924;2023-08-21T14:20:25;31.90;83.30
3134;DHT22;1577;49.912;10.924;2023-08-21T14:22:50;32.00;83.70
3134;DHT22;1577;49.912;10.924;2023-08-21T14:25:17;32.00;84.10
3134;DHT22;1577;49.912;10.924;2023-08-21T14:27:43;32.00;85.20
3134;DHT22;1577;49.912;10.924;2023-08-21T14:30:08;32.00;84.60
3134;DHT22;1577;49.912;10.924;2023-08-21T14:32:34;32.00;84.80
3134;DHT22;1577;49.912;10.924;2023-08-21T14:35:00;31.90;84.20
3134;DHT22;1577;49.912;10.924;2023-08-21T14:37:25;32.00;84.70
3134;DHT22;1577;49.912;10.924;2023-08-21T14:39:51;31.90;85.60
3134;DHT22;1577;49.912;10.924;2023-08-21T14:42:16;31.90;84.70
3134;DHT22;1577;49.912;10.924;2023-08-21T14:44:42;32.00;85.50
3134;DHT22;1577;49.912;10.924;2023-08-21T14:47:07;32.00;84.90
3134;DHT22;1577;49.912;10.924;2023-08-21T14:49:33;31.90;83.40
3134;DHT22;1577;49.912;10.924;2023-08-21T14:51:59;31.90;83.80
3134;DHT22;1577;49.912;10.924;2023-08-21T14:54:24;32.00;85.40
3134;DHT22;1577;49.912;10.924;2023-08-21T14:56:50;32.00;83.90
3134;DHT22;1577;49.912;10.924;2023-08-21T14:59:16;32.10;84.00
3134;DHT22;1577;49.912;10.924;2023-08-21T15:01:42;32.10;84.70
3134;DHT22;1577;49.912;10.924;2023-08-21T15:04:08;32.00;83.80
3134;DHT22;1577;49.912;10.924;2023-08-21T15:06:34;32.10;84.10
3134;DHT22;1577;49.912;10.924;2023-08-21T15:09:00;32.10;83.60
3134;DHT22;1577;49.912;10.924;2023-08-21T15:11:26;32.10;83.60
3134;DHT22;1577;49.912;10.924;2023-08-21T15:13:52;32.00;83.70
3134;DHT22;1577;49.912;10.924;2023-08-21T15:16:17;32.00;84.10
3134;DHT22;1577;49.912;10.924;2023-08-21T15:18:43;31.90;84.90
3134;DHT22;1577;49.912;10.924;2023-08-21T15:21:08;31.90;84.00
3134;DHT22;1577;49.912;10.924;2023-08-21T15:23:34;31.90;83.90
3134;DHT22;1577;49.912;10.924;2023-08-21T15:25:59;31.90;85.50
3134;DHT22;1577;49.912;10.924;2023-08-21T15:28:25;31.90;85.90
3134;DHT22;1577;49.912;10.924;2023-08-21T15:30:51;32.00;82.10
3134;DHT22;1577;49.912;10.924;2023-08-21T15:33:16;32.10;83.30
3134;DHT22;1577;49.912;10.924;2023-08-21T15:35:42;32.20;82.50
3134;DHT22;1577;49.912;10.924;2023-08-21T15:38:07;32.20;81.60
3134;DHT22;1577;49.912;10.924;2023-08-21T15:40:33;32.30;81.20
3134;DHT22;1577;49.912;10.924;2023-08-21T15:43:00;32.30;81.80
3134;DHT22;1577;49.912;10.924;2023-08-21T15:45:27;32.30;81.90
3134;DHT22;1577;49.912;10.924;2023-08-21T15:47:53;32.40;81.50
3134;DHT22;1577;49.912;10.924;2023-08-21T15:50:19;32.40;81.80
3134;DHT22;1577;49.912;10.924;2023-08-21T15:52:46;32.40;80.50
3134;DHT22;1577;49.912;10.924;2023-08-21T15:55:12;32.40;80.60
3134;DHT22;1577;49.912;10.924;2023-08-21T15:57:37;32.40;81.20
3134;DHT22;1577;49.912;10.924;2023-08-21T16:00:03;32.30;82.30
3134;DHT22;1577;49.912;10.924;2023-08-21T16:02:31;32.30;81.20
3134;DHT22;1577;49.912;10.924;2023-08-21T16:04:56;32.30;80.20
3134;DHT22;1577;49.912;10.924;2023-08-21T16:07:22;32.30;80.80